METAR AND TAF INFORMATION
METAR FOR LGKL
ADDS - METARS form results

(1704 UTC 17 October 2018)
Data provider http://aviationweather.gov/metar/data/
 
METAR text: LGKL 171650Z 00000KT 9999 FEW030 21/15 Q1015
Conditions at: LGKL (KALAMATA (HEL-AF, GR) observed 1650 UTC 17 October 2018
Temperature: 21.0°C (70°F)
Dewpoint: 15.0°C (59°F) [RH = 69%]
Pressure (altimeter): 29.97 inches Hg (1015.0 mb)
Winds: calm
Visibility: 6 or more miles (10+ km)
Ceiling: at least 12,000 feet AGL
Clouds: few clouds at 3000 feet AGL
Weather: no significant weather observed at this time

METAR text: LGKL 171620Z 00000KT 9999 FEW030 21/15 Q1015
Conditions at: LGKL (KALAMATA (HEL-AF, GR) observed 1620 UTC 17 October 2018
Temperature: 21.0°C (70°F)
Dewpoint: 15.0°C (59°F) [RH = 69%]
Pressure (altimeter): 29.97 inches Hg (1015.0 mb)
Winds: calm
Visibility: 6 or more miles (10+ km)
Ceiling: at least 12,000 feet AGL
Clouds: few clouds at 3000 feet AGL
Weather: no significant weather observed at this time

Forecast for: LGKL (KALAMATA (HEL-AF, GR)
Text: TAF LGKL 171700Z 1718/1803 18008KT 9999 FEW025
Forecast period: 1800 UTC 17 October 2018 to 0300 UTC 18 October 2018
Forecast type: FROM: standard forecast or significant change
Winds: from the S (180 degrees) at 9 MPH (8 knots; 4.1 m/s)
Visibility: 6 or more miles 10+ km)
Ceiling: at least 12,000 feet AGL
Clouds: few clouds at 2500 feet AGL
Weather: no significant weather forecast for this period
Text: BECMG 1718/1720 34006KT
Forecast period: 1800 UTC 17 October 2018 to 0300 UTC 18 October 2018
Forecast type: BECOMING: Conditions expected to become as follows by 2000 UTC 17 October 2018
Winds: from the NNW (340 degrees) at 7 MPH (6 knots; 3.1 m/s)
Visibility: 6 or more miles 10+ km)
Ceiling: at least 12,000 feet AGL
Clouds: few clouds at 2500 feet AGL
Weather: no significant weather forecast for this period

 AIRPORT MAP

 RUNWAY INFORMATION
Runway 17R Runway length 9260 ft Runway width 148 ft
Runway elevation 26 ft Runway displaced threshold 240 ft Runway heading 169
Runway 35L Runway length 9260 ft Runway width 148 ft
Runway elevation 16 ft Runway displaced threshold 250 ft Runway heading 349

 AIRPORT FREQUENCIES
Type A/G Name RDO Frequency 563.7 MHZ
Type APP Name APP Frequency 120.75 MHZ
Type TWR Name TWR Frequency 120.75 MHZ

 AIRPORT NEAR NAVIGATION AIDS
Type VOR-DME Name Kalamata Frequency 112600 KHZ
Type TACAN Name Kalamata Frequency 115200 KHZ
Type NDB Name Kalamata Frequency 348 KHZ



Air Greece virtual AIrline - All rights reserved 2018 - Powered by Virtual Airlines Manager [v2.6.2]